ESSA/ARN METAR and TAF weather

Enter ICAO airport designator
Station Type Date Time Source
ESSA METAR 2018/06/25 02:20 UTC NOAA

ESSA 250220Z 31004KT CAVOK 08/05 Q1013 NOSIG


Station Type Date Time Source
ESSA Decoded METAR 2018/06/25 02:20 UTC NOAA

Stockholm / Arlanda, Sweden (ESSA) 59-39N 017-57E 61M
Jun 24, 2018 - 10:20 PM EDT / 2018.06.25 0220 UTC
Wind: from the NW (310 degrees) at 5 MPH (4 KT):0
Visibility: greater than 7 mile(s):0
Temperature: 46 F (8 C)
Dew Point: 41 F (5 C)
Relative Humidity: 81%
Pressure (altimeter): 29.91 in. Hg (1013 hPa)
ob: ESSA 250220Z 31004KT CAVOK 08/05 Q1013 NOSIG
cycle: 2

Station Type Date Time Source
ESSA TAF 2018/06/24 18:33 UTC NOAA

TAF ESSA 241730Z 2418/2518 02010KT CAVOK
BECMG 2418/2421 32002KT
BECMG 2507/2509 36012KT


Example: see airport list